Dati Storici

Data ora Umidita' aria (%) Temperatura aria (°C) Rad globale (W/m²) Gonioanemometro (°) Tacoanemometro (m/s) Pioggia (mm)
01-11-2012 08:50 89.5 % 9.888 22.934 47.973 1.979 0
01-11-2012 08:40 89.9 % 9.751 12.458 80.686 4.253 0
01-11-2012 08:30 89.7 % 9.768 14.878 44.32 3.039 0
01-11-2012 08:20 89.4 % 9.848 10.099 37.043 2.149 0
01-11-2012 08:10 89.3 % 9.942 6.899 330.913 2.419 0
01-11-2012 08:00 89.8 % 9.98 6.797 48.34 5.888 0
01-11-2012 07:50 90.6 % 9.9 3.836 100.406 1.506 0
01-11-2012 07:40 91 % 9.833 2.629 30.085 5.196 0
01-11-2012 07:30 91.1 % 9.794 2.462 45.295 5.841 0
01-11-2012 07:20 90.4 % 9.844 2.501 19.256 2.815 0
01-11-2012 07:10 89.6 % 10.085 3.001 35.872 6.648 0
01-11-2012 07:00 89.9 % 10.04 3.565 14.102 4.273 0
01-11-2012 06:50 90.1 % 9.961 3.758 9.475 2.489 0
01-11-2012 06:40 89.7 % 9.931 3.521 38.286 3.896 0
01-11-2012 06:30 89.5 % 9.88 3.56 2.112 4.413 0
01-11-2012 06:20 89.9 % 9.831 3.663 29.134 3.575 0
01-11-2012 06:10 90 % 9.766 3.701 35.932 4.303 0
01-11-2012 06:00 90.1 % 9.78 3.752 1.783 3.717 0
01-11-2012 05:50 90.7 % 9.758 3.893 22.32 3.893 0
01-11-2012 05:40 91.9 % 9.653 3.615 26.954 5.238 0

I dati sono presentati in modo automatico a scopo informativo. In seguito a verifica i dati possono subire modifiche o essere invalidati e non riportati negli archivi definitivi.